createdAt,value
2023-04-21T00:00:54.313Z,26.70
2023-04-21T00:03:23.641Z,25.30
2023-04-21T00:05:51.081Z,30.33
2023-04-21T00:08:18.883Z,28.60
2023-04-21T00:10:46.878Z,24.70
2023-04-21T00:13:14.208Z,27.20
2023-04-21T00:15:40.911Z,25.50
2023-04-21T00:18:07.678Z,30.43
2023-04-21T00:20:34.197Z,27.17
2023-04-21T00:23:00.650Z,27.93
2023-04-21T00:25:27.341Z,29.37
2023-04-21T00:27:53.765Z,26.27
2023-04-21T00:30:20.362Z,28.07
2023-04-21T00:32:47.173Z,28.97
2023-04-21T00:35:13.774Z,27.70
2023-04-21T00:37:40.787Z,26.80
2023-04-21T00:40:08.567Z,28.70
2023-04-21T00:42:35.097Z,27.57
2023-04-21T00:45:01.677Z,27.13
2023-04-21T00:47:31.171Z,28.40
2023-04-21T00:49:58.825Z,28.83
2023-04-21T00:52:26.403Z,27.13
2023-04-21T00:54:53.329Z,29.53
2023-04-21T00:57:21.180Z,25.43
2023-04-21T00:59:47.818Z,26.80
2023-04-21T01:02:16.676Z,24.70
2023-04-21T01:04:45.566Z,25.80
2023-04-21T01:07:12.577Z,32.67
2023-04-21T01:09:39.205Z,26.33
2023-04-21T01:12:11.056Z,24.53
2023-04-21T01:14:38.939Z,25.87
2023-04-21T01:17:06.103Z,31.73
2023-04-21T01:19:35.654Z,31.67
2023-04-21T01:22:03.680Z,25.40
2023-04-21T01:24:40.909Z,28.47
2023-04-21T01:27:12.579Z,26.23
2023-04-21T01:29:41.076Z,25.10
2023-04-21T01:32:13.324Z,24.60
2023-04-21T01:34:41.170Z,28.57
2023-04-21T01:37:09.745Z,30.20
2023-04-21T01:39:45.663Z,24.53
2023-04-21T01:42:13.016Z,23.43
2023-04-21T01:44:40.076Z,28.13
2023-04-21T01:47:07.016Z,24.00
2023-04-21T01:49:33.466Z,22.80
2023-04-21T01:51:59.902Z,27.97
2023-04-21T01:54:26.521Z,20.97
2023-04-21T01:56:53.116Z,25.43
2023-04-21T01:59:21.221Z,26.60
2023-04-21T02:01:47.861Z,27.80
2023-04-21T02:04:14.404Z,28.97
2023-04-21T02:06:41.180Z,25.83
2023-04-21T02:09:07.618Z,30.03
2023-04-21T02:11:34.303Z,26.53
2023-04-21T02:14:00.914Z,27.43
2023-04-21T02:16:27.864Z,24.50
2023-04-21T02:19:03.127Z,27.23
2023-04-21T02:21:29.624Z,28.60
2023-04-21T02:23:56.303Z,24.70
2023-04-21T02:26:26.121Z,26.77
2023-04-21T02:28:52.721Z,25.50
2023-04-21T02:31:19.451Z,22.10
2023-04-21T02:33:48.144Z,30.57
2023-04-21T02:36:14.677Z,24.03
2023-04-21T02:38:41.314Z,28.03
2023-04-21T02:41:09.860Z,26.53
2023-04-21T02:43:36.315Z,27.87
2023-04-21T02:46:07.452Z,26.00
2023-04-21T02:48:35.319Z,29.90
2023-04-21T02:51:02.509Z,24.43
2023-04-21T02:53:29.178Z,28.23
2023-04-21T02:55:56.336Z,30.67
2023-04-21T02:58:23.606Z,23.57
2023-04-21T03:00:50.213Z,25.63
2023-04-21T03:03:16.823Z,29.73
2023-04-21T03:05:43.466Z,27.00
2023-04-21T03:08:09.946Z,27.97
2023-04-21T03:10:37.649Z,34.30
2023-04-21T03:13:04.287Z,35.53
2023-04-21T03:15:32.280Z,28.50
2023-04-21T03:18:01.435Z,27.77
2023-04-21T03:20:28.197Z,26.30
2023-04-21T03:22:54.626Z,27.47
2023-04-21T03:25:21.571Z,30.27
2023-04-21T03:27:48.040Z,24.83
2023-04-21T03:30:14.600Z,27.23
2023-04-21T03:32:41.134Z,32.10
2023-04-21T03:35:07.934Z,26.03
2023-04-21T03:37:34.435Z,33.37
2023-04-21T03:40:01.087Z,30.90
2023-04-21T03:42:29.684Z,32.43
2023-04-21T03:44:56.787Z,35.87
2023-04-21T03:47:23.722Z,31.33
2023-04-21T03:49:51.619Z,28.10
2023-04-21T03:52:18.067Z,32.77
2023-04-21T03:54:44.584Z,28.53
2023-04-21T03:57:11.141Z,28.13
2023-04-21T03:59:37.855Z,26.33
2023-04-21T04:02:04.544Z,29.23
2023-04-21T04:04:31.709Z,31.80
2023-04-21T04:06:58.621Z,30.20
2023-04-21T04:09:25.278Z,29.80
2023-04-21T04:11:51.787Z,27.60
2023-04-21T04:14:18.217Z,34.20
2023-04-21T04:16:44.654Z,32.00
2023-04-21T04:19:11.595Z,28.20
2023-04-21T04:21:38.504Z,30.30
2023-04-21T04:24:08.700Z,27.97
2023-04-21T04:26:35.549Z,29.20
2023-04-21T04:29:02.349Z,28.70
2023-04-21T04:31:32.540Z,29.30
2023-04-21T04:33:59.145Z,28.40
2023-04-21T04:36:25.678Z,28.77
2023-04-21T04:38:52.166Z,29.90
2023-04-21T04:41:19.519Z,27.07
2023-04-21T04:43:46.498Z,31.83
2023-04-21T04:46:13.182Z,30.53
2023-04-21T04:48:40.469Z,28.50
2023-04-21T04:51:06.918Z,30.00
2023-04-21T04:53:33.423Z,30.50
2023-04-21T04:55:59.849Z,35.23
2023-04-21T04:58:26.438Z,32.97
2023-04-21T05:00:52.989Z,28.30
2023-04-21T05:03:19.534Z,34.53
2023-04-21T05:05:46.244Z,29.30
2023-04-21T05:08:12.973Z,32.67
2023-04-21T05:10:39.857Z,36.80
2023-04-21T05:13:06.737Z,36.03
2023-04-21T05:15:33.299Z,34.60
2023-04-21T05:17:59.794Z,38.17
2023-04-21T05:20:26.339Z,34.70
2023-04-21T05:22:52.769Z,33.37
2023-04-21T05:25:19.189Z,36.13
2023-04-21T05:27:45.802Z,36.83
2023-04-21T05:30:12.264Z,38.77
2023-04-21T05:32:38.931Z,38.97
2023-04-21T05:35:06.244Z,39.53
2023-04-21T05:37:32.721Z,36.70
2023-04-21T05:39:59.151Z,33.07
2023-04-21T05:42:25.732Z,39.63
2023-04-21T05:44:52.220Z,41.20
2023-04-21T05:47:18.712Z,37.60
2023-04-21T05:49:49.991Z,33.87
2023-04-21T05:52:17.730Z,41.80
2023-04-21T05:54:44.236Z,46.53
2023-04-21T05:57:10.833Z,36.00
2023-04-21T05:59:37.339Z,39.50
2023-04-21T06:02:04.086Z,35.60
2023-04-21T06:04:31.036Z,36.50
2023-04-21T06:06:57.628Z,40.30
2023-04-21T06:09:24.158Z,37.60
2023-04-21T06:11:50.755Z,39.17
2023-04-21T06:14:17.435Z,43.53
2023-04-21T06:16:44.180Z,41.20
2023-04-21T06:19:10.762Z,41.10
2023-04-21T06:21:37.199Z,39.77
2023-04-21T06:24:03.854Z,32.30
2023-04-21T06:26:30.484Z,40.27
2023-04-21T06:28:57.076Z,38.87
2023-04-21T06:31:23.575Z,38.10
2023-04-21T06:33:50.074Z,43.00
2023-04-21T06:36:18.167Z,34.23
2023-04-21T06:38:45.190Z,30.33
2023-04-21T06:41:11.615Z,31.30
2023-04-21T06:43:38.180Z,37.70
2023-04-21T06:46:04.869Z,26.87
2023-04-21T06:48:31.747Z,31.63
2023-04-21T06:50:58.348Z,27.70
2023-04-21T06:53:24.782Z,30.80
2023-04-21T06:55:52.313Z,29.60
2023-04-21T06:58:21.125Z,25.10
2023-04-21T07:00:48.062Z,26.30
2023-04-21T07:03:14.696Z,24.83
2023-04-21T07:05:41.254Z,23.90
2023-04-21T07:08:07.805Z,26.40
2023-04-21T07:10:34.245Z,23.70
2023-04-21T07:13:00.780Z,23.10
2023-04-21T07:15:27.354Z,22.73
2023-04-21T07:17:53.839Z,21.87
2023-04-21T07:20:20.458Z,23.53
2023-04-21T07:22:47.246Z,22.57
2023-04-21T07:25:13.813Z,19.53
2023-04-21T07:27:40.322Z,21.03
2023-04-21T07:30:09.243Z,17.10
2023-04-21T07:32:38.573Z,17.27
2023-04-21T07:35:06.558Z,18.90
2023-04-21T07:37:33.135Z,20.50
2023-04-21T07:39:59.728Z,22.13
2023-04-21T07:42:26.871Z,16.17
2023-04-21T07:44:53.643Z,19.87
2023-04-21T07:47:20.496Z,24.07
2023-04-21T07:49:47.028Z,19.13
2023-04-21T07:52:13.496Z,18.63
2023-04-21T07:54:40.055Z,17.17
2023-04-21T07:57:07.256Z,16.90
2023-04-21T07:59:33.767Z,18.90
2023-04-21T08:02:00.462Z,14.67
2023-04-21T08:04:27.486Z,18.00
2023-04-21T08:06:54.386Z,15.60
2023-04-21T08:09:21.216Z,18.93
2023-04-21T08:11:47.851Z,19.37
2023-04-21T08:14:14.414Z,16.83
2023-04-21T08:16:42.250Z,14.03
2023-04-21T08:19:09.496Z,12.60
2023-04-21T08:21:36.807Z,11.90
2023-04-21T08:24:03.727Z,15.43
2023-04-21T08:26:30.348Z,16.27
2023-04-21T08:28:57.311Z,15.07
2023-04-21T08:31:24.041Z,14.17
2023-04-21T08:34:01.131Z,15.77
2023-04-21T08:36:30.365Z,15.67
2023-04-21T08:38:57.706Z,16.13
2023-04-21T08:41:25.545Z,17.63
2023-04-21T08:43:52.253Z,18.27
2023-04-21T08:46:19.384Z,16.40
2023-04-21T08:48:47.106Z,18.53
2023-04-21T08:51:20.947Z,15.00
2023-04-21T08:53:47.440Z,14.07
2023-04-21T08:56:13.909Z,15.80
2023-04-21T08:58:41.699Z,16.00
2023-04-21T09:01:08.525Z,16.33
2023-04-21T09:03:35.388Z,14.13
2023-04-21T09:06:08.514Z,14.37
2023-04-21T09:08:43.098Z,17.57
2023-04-21T09:11:14.054Z,14.90
2023-04-21T09:13:42.910Z,14.37
2023-04-21T09:16:18.521Z,11.20
2023-04-21T09:18:45.124Z,15.97
2023-04-21T09:21:16.727Z,16.43
2023-04-21T09:23:48.812Z,17.60
2023-04-21T09:26:16.338Z,19.10
2023-04-21T09:28:45.181Z,19.80
2023-04-21T09:31:20.259Z,15.27
2023-04-21T09:36:23.618Z,17.93
2023-04-21T09:39:17.402Z,19.30
2023-04-21T09:41:44.271Z,16.20
2023-04-21T09:44:10.905Z,17.50
2023-04-21T09:46:38.061Z,17.00
2023-04-21T09:49:05.371Z,18.73
2023-04-21T09:51:56.395Z,17.43
2023-04-21T09:54:29.650Z,17.50
2023-04-21T09:57:03.427Z,19.07
2023-04-21T09:59:34.827Z,16.40
2023-04-21T10:02:05.162Z,18.57
2023-04-21T10:04:33.618Z,18.40
2023-04-21T10:07:01.046Z,15.50
2023-04-21T10:09:33.415Z,16.63
2023-04-21T10:12:02.681Z,15.40
2023-04-21T10:14:29.141Z,15.40
2023-04-21T10:16:57.282Z,21.40
2023-04-21T10:19:28.110Z,15.90
2023-04-21T10:21:58.788Z,12.93
2023-04-21T10:24:29.401Z,15.63
2023-04-21T10:27:02.109Z,14.00
2023-04-21T10:29:40.067Z,16.43
2023-04-21T10:32:11.171Z,12.17
2023-04-21T10:34:38.615Z,11.27
2023-04-21T10:37:05.024Z,13.30
2023-04-21T10:39:51.153Z,12.50
2023-04-21T10:42:20.731Z,13.50
2023-04-21T10:44:56.186Z,20.47
2023-04-21T10:47:31.896Z,15.20
2023-04-21T10:49:59.447Z,13.10
2023-04-21T10:52:35.831Z,15.40
2023-04-21T10:55:03.893Z,17.40
2023-04-21T10:57:34.734Z,14.30
2023-04-21T11:00:01.251Z,13.17
2023-04-21T11:02:27.844Z,19.60
2023-04-21T11:04:55.210Z,19.97
2023-04-21T11:07:26.088Z,17.20
2023-04-21T11:10:00.758Z,19.70
2023-04-21T11:12:32.508Z,15.40
2023-04-21T11:14:59.141Z,17.80
2023-04-21T11:17:26.444Z,16.13
2023-04-21T11:19:56.774Z,20.13
2023-04-21T11:22:25.337Z,15.23
2023-04-21T11:24:56.347Z,15.57
2023-04-21T11:27:23.513Z,15.10
2023-04-21T11:29:51.335Z,18.53
2023-04-21T11:32:18.675Z,18.17
2023-04-21T11:34:45.833Z,16.00
2023-04-21T11:37:20.691Z,15.17
2023-04-21T11:39:47.272Z,15.00
2023-04-21T11:42:22.456Z,18.40
2023-04-21T11:44:49.096Z,17.40
2023-04-21T11:47:28.556Z,17.33
2023-04-21T11:49:57.148Z,13.37
2023-04-21T11:52:25.104Z,15.13
2023-04-21T11:54:56.877Z,15.03
2023-04-21T11:57:24.650Z,14.90
2023-04-21T11:59:52.024Z,14.90
2023-04-21T12:02:24.116Z,17.20
2023-04-21T12:05:05.172Z,15.60
2023-04-21T12:07:51.950Z,14.33
2023-04-21T12:10:20.769Z,14.53
2023-04-21T12:12:48.003Z,14.80
2023-04-21T12:15:23.497Z,15.37
2023-04-21T12:17:55.054Z,11.20
2023-04-21T12:20:24.033Z,9.80
2023-04-21T12:22:50.753Z,17.43
2023-04-21T12:25:17.691Z,14.10
2023-04-21T12:27:48.971Z,14.87
2023-04-21T12:30:16.081Z,17.67
2023-04-21T12:32:42.714Z,14.47
2023-04-21T12:35:09.589Z,13.53
2023-04-21T12:37:36.406Z,16.00
2023-04-21T12:40:03.425Z,17.60
2023-04-21T12:42:29.984Z,13.60
2023-04-21T12:44:56.849Z,14.03
2023-04-21T12:47:23.471Z,12.70
2023-04-21T12:49:50.013Z,10.50
2023-04-21T12:52:16.490Z,11.23
2023-04-21T12:54:44.673Z,10.67
2023-04-21T12:57:11.629Z,9.07
2023-04-21T12:59:38.140Z,4.23
2023-04-21T13:02:04.819Z,5.33
2023-04-21T13:04:32.351Z,4.30
2023-04-21T13:06:59.262Z,3.30
2023-04-21T13:09:26.036Z,3.20
2023-04-21T13:11:52.508Z,2.80
2023-04-21T13:14:19.077Z,6.07
2023-04-21T13:16:45.842Z,3.30
2023-04-21T13:19:12.330Z,7.10
2023-04-21T13:21:38.981Z,3.40
2023-04-21T13:24:05.949Z,4.13
2023-04-21T13:26:35.968Z,2.00
2023-04-21T13:29:04.201Z,3.80
2023-04-21T13:31:32.261Z,5.03
2023-04-21T13:33:59.721Z,3.03
2023-04-21T13:36:26.902Z,2.70
2023-04-21T13:38:55.669Z,2.57
2023-04-21T13:41:22.325Z,2.57
2023-04-21T13:43:48.900Z,2.63
2023-04-21T13:46:15.680Z,2.97
2023-04-21T13:48:44.880Z,2.63
2023-04-21T13:51:11.495Z,2.77
2023-04-21T13:53:37.999Z,8.43
2023-04-21T13:56:04.700Z,4.77
2023-04-21T13:58:31.391Z,4.10
2023-04-21T14:00:57.868Z,5.10
2023-04-21T14:03:24.650Z,4.33
2023-04-21T14:05:51.288Z,5.03
2023-04-21T14:08:18.064Z,6.53
2023-04-21T14:10:44.593Z,3.30
2023-04-21T14:13:17.397Z,4.87
2023-04-21T14:15:53.795Z,4.47
2023-04-21T14:18:20.586Z,2.70
2023-04-21T14:20:47.228Z,4.23
2023-04-21T14:23:13.718Z,7.43
2023-04-21T14:25:40.332Z,6.10
2023-04-21T14:28:07.376Z,6.70
2023-04-21T14:30:37.870Z,5.70
2023-04-21T14:33:05.016Z,3.17
2023-04-21T14:35:31.574Z,2.20
2023-04-21T14:37:58.360Z,3.77
2023-04-21T14:40:24.826Z,6.63
2023-04-21T14:42:51.365Z,2.43
2023-04-21T14:45:17.982Z,2.57
2023-04-21T14:47:44.632Z,3.00
2023-04-21T14:50:12.313Z,4.13
2023-04-21T14:52:39.690Z,3.67
2023-04-21T14:55:06.577Z,3.73
2023-04-21T14:57:33.097Z,3.70
2023-04-21T15:00:00.163Z,3.40
2023-04-21T15:02:27.086Z,2.53
2023-04-21T15:04:53.909Z,2.57
2023-04-21T15:07:24.259Z,3.40
2023-04-21T15:09:51.953Z,2.87
2023-04-21T15:12:18.512Z,3.43
2023-04-21T15:14:45.193Z,4.80
2023-04-21T15:17:11.822Z,2.93
2023-04-21T15:19:38.430Z,3.93
2023-04-21T15:22:05.126Z,4.03
2023-04-21T15:24:31.736Z,3.43
2023-04-21T15:26:58.387Z,1.87
2023-04-21T15:29:24.942Z,3.00
2023-04-21T15:31:51.473Z,2.40
2023-04-21T15:34:17.936Z,2.03
2023-04-21T15:36:44.388Z,3.93
2023-04-21T15:39:13.921Z,2.50
2023-04-21T15:41:40.816Z,2.13
2023-04-21T15:44:07.290Z,2.70
2023-04-21T15:46:34.604Z,3.70
2023-04-21T15:49:01.327Z,3.00
2023-04-21T15:51:28.176Z,2.77
2023-04-21T15:53:54.690Z,2.50
2023-04-21T15:56:21.205Z,3.33
2023-04-21T15:58:47.661Z,2.90
2023-04-21T16:01:14.166Z,1.90
2023-04-21T16:03:40.846Z,1.97
2023-04-21T16:06:07.825Z,1.57
2023-04-21T16:08:34.454Z,2.90
2023-04-21T16:11:01.125Z,3.37
2023-04-21T16:13:27.927Z,2.67
2023-04-21T16:15:54.488Z,2.77
2023-04-21T16:18:21.118Z,1.63
2023-04-21T16:20:47.967Z,2.70
2023-04-21T16:23:15.544Z,1.70
2023-04-21T16:25:42.214Z,1.70
2023-04-21T16:28:09.727Z,2.17
2023-04-21T16:30:38.369Z,3.30
2023-04-21T16:33:04.920Z,1.43
2023-04-21T16:35:31.837Z,1.37
2023-04-21T16:37:58.568Z,3.10
2023-04-21T16:40:25.372Z,3.60
2023-04-21T16:42:52.445Z,1.90
2023-04-21T16:45:19.105Z,1.87
2023-04-21T16:47:45.840Z,3.07
2023-04-21T16:50:12.449Z,2.13
2023-04-21T16:52:39.100Z,3.73
2023-04-21T16:55:06.020Z,2.53
2023-04-21T16:57:33.571Z,3.57
2023-04-21T17:00:00.872Z,2.70
2023-04-21T17:02:27.433Z,3.20
2023-04-21T17:04:54.026Z,3.77
2023-04-21T17:07:20.740Z,4.03
2023-04-21T17:09:47.193Z,2.70
2023-04-21T17:12:13.742Z,2.30
2023-04-21T17:14:40.602Z,2.90
2023-04-21T17:17:07.366Z,2.13
2023-04-21T17:19:34.203Z,2.10
2023-04-21T17:22:00.688Z,2.83
2023-04-21T17:24:29.551Z,2.17
2023-04-21T17:26:59.727Z,3.13
2023-04-21T17:29:26.812Z,8.27
2023-04-21T17:31:53.346Z,3.00
2023-04-21T17:34:19.823Z,2.10
2023-04-21T17:36:46.265Z,4.03
2023-04-21T17:39:12.768Z,3.40
2023-04-21T17:41:39.282Z,2.23
2023-04-21T17:44:05.799Z,2.90
2023-04-21T17:46:32.326Z,2.73
2023-04-21T17:48:58.786Z,1.93
2023-04-21T17:51:26.060Z,2.53
2023-04-21T17:53:53.088Z,2.70
2023-04-21T17:56:19.618Z,2.37
2023-04-21T17:58:46.809Z,4.47
2023-04-21T18:01:13.326Z,4.80
2023-04-21T18:03:42.269Z,2.20
2023-04-21T18:06:11.202Z,3.40
2023-04-21T18:08:38.160Z,2.60
2023-04-21T18:11:04.677Z,3.77
2023-04-21T18:13:31.124Z,4.80
2023-04-21T18:15:57.872Z,4.90
2023-04-21T18:18:24.443Z,2.67
2023-04-21T18:20:50.924Z,3.20
2023-04-21T18:23:17.392Z,3.00
2023-04-21T18:25:43.835Z,3.90
2023-04-21T18:28:13.408Z,3.60
2023-04-21T18:30:40.105Z,2.70
2023-04-21T18:33:06.658Z,3.33
2023-04-21T18:35:33.989Z,4.23
2023-04-21T18:38:00.820Z,3.40
2023-04-21T18:40:27.544Z,2.90
2023-04-21T18:42:54.167Z,3.40
2023-04-21T18:45:20.677Z,4.90
2023-04-21T18:47:47.250Z,4.13
2023-04-21T18:50:13.802Z,4.53
2023-04-21T18:52:40.299Z,4.60
2023-04-21T18:55:07.074Z,3.30
2023-04-21T18:57:33.518Z,4.70
2023-04-21T19:00:00.351Z,6.07
2023-04-21T19:02:28.829Z,4.03
2023-04-21T19:04:55.535Z,4.40
2023-04-21T19:07:21.996Z,5.80
2023-04-21T19:09:48.567Z,5.27
2023-04-21T19:12:15.946Z,4.37
2023-04-21T19:14:47.245Z,5.17
2023-04-21T19:17:14.468Z,6.93
2023-04-21T19:19:41.238Z,4.70
2023-04-21T19:22:07.790Z,7.93
2023-04-21T19:24:35.746Z,4.60
2023-04-21T19:27:03.520Z,7.13
2023-04-21T19:29:30.920Z,3.93
2023-04-21T19:31:57.834Z,3.00
2023-04-21T19:34:24.285Z,2.23
2023-04-21T19:36:52.718Z,6.60
2023-04-21T19:39:19.412Z,1.43
2023-04-21T19:41:45.878Z,2.30
2023-04-21T19:44:12.901Z,1.30
2023-04-21T19:46:42.579Z,1.43
2023-04-21T19:49:12.837Z,0.90
2023-04-21T19:51:40.050Z,1.10
2023-04-21T19:54:11.452Z,1.50
2023-04-21T19:56:39.512Z,2.03
2023-04-21T19:59:06.520Z,1.17
2023-04-21T20:01:36.408Z,2.60
2023-04-21T20:04:03.577Z,1.67
2023-04-21T20:06:30.494Z,1.30
2023-04-21T20:08:56.989Z,1.73
2023-04-21T20:11:23.566Z,1.77
2023-04-21T20:13:50.216Z,2.13
2023-04-21T20:16:18.156Z,1.57
2023-04-21T20:18:44.822Z,0.90
2023-04-21T20:21:11.311Z,1.20
2023-04-21T20:23:37.797Z,1.23
2023-04-21T20:26:04.512Z,8.20
2023-04-21T20:28:32.161Z,1.10
2023-04-21T20:30:58.695Z,1.10
2023-04-21T20:33:25.396Z,1.10
2023-04-21T20:35:52.405Z,1.57
2023-04-21T20:38:19.171Z,1.70
2023-04-21T20:40:46.362Z,1.20
2023-04-21T20:43:12.831Z,0.90
2023-04-21T20:45:41.263Z,1.27
2023-04-21T20:48:07.939Z,1.20
2023-04-21T20:50:34.459Z,2.53
2023-04-21T20:53:00.961Z,1.00
2023-04-21T20:55:27.515Z,1.10
2023-04-21T20:57:53.932Z,1.63
2023-04-21T21:00:20.588Z,2.33
2023-04-21T21:02:47.202Z,2.40
2023-04-21T21:05:13.683Z,2.33
2023-04-21T21:07:40.261Z,1.53
2023-04-21T21:10:08.044Z,1.43
2023-04-21T21:12:34.527Z,1.83
2023-04-21T21:15:00.967Z,4.03
2023-04-21T21:17:27.536Z,2.80
2023-04-21T21:19:54.022Z,6.73
2023-04-21T21:22:20.475Z,2.60
2023-04-21T21:24:46.980Z,3.23
2023-04-21T21:27:13.482Z,1.47
2023-04-21T21:29:40.392Z,3.37
2023-04-21T21:32:07.186Z,1.60
2023-04-21T21:34:33.621Z,1.53
2023-04-21T21:37:00.212Z,2.50
2023-04-21T21:39:26.823Z,1.20
2023-04-21T21:41:53.265Z,1.90
2023-04-21T21:44:21.251Z,1.43
2023-04-21T21:46:49.110Z,2.90
2023-04-21T21:49:15.920Z,1.13
2023-04-21T21:51:42.477Z,1.73
2023-04-21T21:54:08.911Z,2.80
2023-04-21T21:56:36.462Z,3.50
2023-04-21T21:59:02.946Z,3.33
2023-04-21T22:01:29.601Z,3.00
2023-04-21T22:03:56.396Z,3.33
2023-04-21T22:06:24.355Z,2.27
2023-04-21T22:08:51.356Z,2.80
2023-04-21T22:11:20.289Z,1.93
2023-04-21T22:13:46.930Z,3.27
2023-04-21T22:16:13.639Z,3.30
2023-04-21T22:18:40.188Z,6.20
2023-04-21T22:21:06.670Z,3.40
2023-04-21T22:23:33.146Z,2.90
2023-04-21T22:25:59.720Z,2.93
2023-04-21T22:28:26.174Z,4.23
2023-04-21T22:30:52.723Z,3.17
2023-04-21T22:33:19.382Z,2.60
2023-04-21T22:35:45.894Z,2.50
2023-04-21T22:38:12.322Z,2.77
2023-04-21T22:40:38.816Z,3.37
2023-04-21T22:43:05.774Z,2.13
2023-04-21T22:45:32.434Z,2.53
2023-04-21T22:47:58.901Z,2.60
2023-04-21T22:50:25.591Z,2.23
2023-04-21T22:52:52.075Z,2.93
2023-04-21T22:55:18.498Z,2.43
2023-04-21T22:57:44.962Z,3.93
2023-04-21T23:00:11.746Z,3.47
2023-04-21T23:02:38.519Z,3.57
2023-04-21T23:05:05.639Z,4.90
2023-04-21T23:07:32.109Z,7.30
2023-04-21T23:09:58.746Z,4.33
2023-04-21T23:12:25.772Z,5.47
2023-04-21T23:14:52.302Z,2.30
2023-04-21T23:17:18.729Z,7.37
2023-04-21T23:19:45.864Z,2.70
2023-04-21T23:22:12.378Z,3.93
2023-04-21T23:24:39.161Z,5.73
2023-04-21T23:27:05.684Z,3.90
2023-04-21T23:29:32.161Z,5.23
2023-04-21T23:31:58.755Z,3.90
2023-04-21T23:34:25.487Z,6.27
2023-04-21T23:36:51.915Z,4.50
2023-04-21T23:39:21.436Z,4.67
2023-04-21T23:41:48.216Z,3.70
2023-04-21T23:44:15.125Z,3.23
2023-04-21T23:46:41.744Z,4.03
2023-04-21T23:49:08.434Z,3.77
2023-04-21T23:51:34.993Z,7.37
2023-04-21T23:54:02.082Z,5.03
2023-04-21T23:56:28.889Z,3.00
2023-04-21T23:58:55.599Z,2.47
